CST,Max TemperatureF,Mean TemperatureF,Min TemperatureF,Max Dew PointF,MeanDew PointF,Min DewpointF,Max Humidity, Mean Humidity, Min Humidity, Max Sea Level PressureIn, Mean Sea Level PressureIn, Min Sea Level PressureIn, Max VisibilityMiles, Mean VisibilityMiles, Min VisibilityMiles, Max Wind SpeedMPH, Mean Wind SpeedMPH, Max Gust SpeedMPH,PrecipitationIn, CloudCover, Events, WindDirDegrees
2012-2-1,63,53,42,54,45,29,100,76,41,30.19,30.08,30.03,10,9,4,10,3,,0.00,5,,16
2012-2-2,64,50,36,42,33,28,79,56,31,30.25,30.17,30.11,10,10,10,15,5,,0.00,1,,95
2012-2-3,60,55,50,56,50,36,100,86,54,30.09,29.98,29.88,10,8,2,17,11,25,0.84,7,Rain,132
2012-2-4,55,46,36,55,42,30,100,90,79,30.26,30.11,29.93,10,10,3,16,9,24,0.01,8,Rain,285
2012-2-5,42,37,30,34,31,27,89,83,70,30.38,30.32,30.27,10,10,9,12,8,18,0.00,6,,331
2012-2-6,50,37,24,33,27,21,100,77,35,30.35,30.29,30.21,10,7,0,4,0,,0.00,0,Fog,215
2012-2-7,46,38,30,36,32,25,93,78,54,30.38,30.28,30.21,10,10,10,10,3,,0.00,7,,356
2012-2-8,39,36,33,36,31,26,100,83,60,30.47,30.40,30.37,10,7,2,12,7,,0.00,8,,360
2012-2-9,45,40,34,35,30,28,86,72,56,30.36,30.25,30.15,10,10,7,9,3,,0.00,8,Rain,184
2012-2-10,39,30,19,38,30,10,100,87,57,30.36,30.15,30.05,10,6,2,21,8,26,0.10,6,Rain,292
2012-2-11,28,20,12,10,5,3,71,56,36,30.69,30.60,30.39,10,10,10,20,13,26,0.00,1,,358
2012-2-12,37,24,12,11,4,-2,74,42,18,30.65,30.48,30.21,10,10,10,14,4,,0.00,3,,165
2012-2-13,34,30,26,33,27,7,100,91,32,30.18,29.99,29.80,10,5,1,18,12,30,0.06,8,Rain-Snow,176
2012-2-14,53,42,32,38,34,30,100,81,52,29.99,29.92,29.85,10,7,2,9,6,,0.00,5,,210
2012-2-15,54,49,44,50,46,39,100,92,81,30.03,29.93,29.86,10,7,2,15,8,,0.53,7,Rain,194
2012-2-16,55,47,39,47,39,27,100,81,34,30.27,30.19,30.03,10,7,1,14,7,,0.00,5,,344
2012-2-17,54,46,37,43,38,33,93,75,64,30.20,30.14,30.08,10,10,7,8,2,,0.00,6,,157
2012-2-18,48,42,37,43,38,29,93,77,64,30.09,30.05,29.99,10,9,7,15,8,,0.01,7,Rain,29
2012-2-19,54,45,36,29,26,23,73,53,30,30.12,30.06,30.01,10,10,10,8,4,,0.00,2,,50
2012-2-20,55,46,37,43,34,30,93,65,43,30.06,29.93,29.75,10,10,3,25,14,38,0.01,3,Rain,168
2012-2-21,55,45,35,33,28,22,73,53,27,30.06,29.95,29.83,10,10,10,23,14,32,0.00,1,,229
2012-2-22,68,54,39,48,36,28,82,53,24,29.81,29.63,29.47,10,10,10,18,8,26,0.00,0,,225
2012-2-23,69,56,42,41,34,26,61,46,32,29.83,29.44,29.21,10,10,10,23,12,38,0.00,1,,259
2012-2-24,48,40,33,25,20,14,72,48,26,30.27,30.12,29.85,10,10,9,18,14,32,0.00,1,,295
2012-2-25,55,41,27,23,21,16,78,45,22,30.35,30.24,30.09,10,10,4,13,6,18,0.00,0,,178
2012-2-26,61,51,41,35,27,21,57,41,30,30.18,30.09,30.00,10,10,10,22,12,32,0.00,1,,191
2012-2-27,63,54,46,39,31,26,71,45,26,30.37,30.29,30.20,10,10,8,14,6,,0.00,3,,67
2012-2-28,64,56,48,59,49,32,86,72,48,30.23,29.96,29.67,10,10,10,25,12,41,0.00,6,,150
2012-2-29,66,56,37,61,32,23,83,44,24,29.94,29.87,29.71,10,10,10,28,13,36,0.00,1,Thunderstorm,256